createdAt,value
2023-03-12T00:00:52.232Z,0.33
2023-03-12T00:03:18.680Z,0.28
2023-03-12T00:05:45.310Z,0.25
2023-03-12T00:08:12.903Z,0.21
2023-03-12T00:10:40.571Z,0.18
2023-03-12T00:13:08.016Z,0.09
2023-03-12T00:15:38.680Z,0.10
2023-03-12T00:18:05.665Z,0.06
2023-03-12T00:20:32.792Z,0.04
2023-03-12T00:22:59.394Z,0.01
2023-03-12T00:25:25.810Z,-0.05
2023-03-12T00:27:52.193Z,-0.12
2023-03-12T00:30:18.810Z,-0.15
2023-03-12T00:32:45.317Z,-0.16
2023-03-12T00:35:12.017Z,-0.16
2023-03-12T00:37:38.549Z,-0.14
2023-03-12T00:40:08.372Z,-0.12
2023-03-12T00:42:34.814Z,-0.12
2023-03-12T00:45:01.234Z,-0.14
2023-03-12T00:47:27.665Z,-0.16
2023-03-12T00:49:54.091Z,-0.15
2023-03-12T00:52:20.551Z,-0.14
2023-03-12T00:54:46.939Z,-0.13
2023-03-12T00:57:13.344Z,-0.11
2023-03-12T00:59:40.476Z,-0.09
2023-03-12T01:02:08.580Z,-0.07
2023-03-12T01:04:35.170Z,-0.07
2023-03-12T01:07:01.605Z,-0.06
2023-03-12T01:09:28.197Z,-0.06
2023-03-12T01:11:54.700Z,-0.07
2023-03-12T01:14:21.116Z,-0.11
2023-03-12T01:16:47.674Z,-0.14
2023-03-12T01:19:14.129Z,-0.19
2023-03-12T01:21:40.681Z,-0.24
2023-03-12T01:24:07.670Z,-0.23
2023-03-12T01:26:34.105Z,-0.22
2023-03-12T01:29:00.534Z,-0.19
2023-03-12T01:31:27.126Z,-0.17
2023-03-12T01:33:54.095Z,-0.15
2023-03-12T01:36:24.082Z,-0.18
2023-03-12T01:38:52.231Z,-0.22
2023-03-12T01:41:19.390Z,-0.23
2023-03-12T01:43:46.229Z,-0.23
2023-03-12T01:46:16.234Z,-0.20
2023-03-12T01:48:45.689Z,-0.16
2023-03-12T01:51:15.866Z,-0.15
2023-03-12T01:53:47.098Z,-0.19
2023-03-12T01:56:17.193Z,-0.18
2023-03-12T01:58:50.429Z,-0.22
2023-03-12T02:01:19.539Z,-0.27
2023-03-12T02:03:50.544Z,-0.33
2023-03-12T02:06:20.802Z,-0.28
2023-03-12T02:08:48.224Z,-0.28
2023-03-12T02:11:14.836Z,-0.27
2023-03-12T02:13:41.558Z,-0.27
2023-03-12T02:16:09.276Z,-0.23
2023-03-12T02:18:36.070Z,-0.22
2023-03-12T02:21:13.899Z,-0.25
2023-03-12T02:23:57.143Z,-0.18
2023-03-12T02:26:27.365Z,-0.17
2023-03-12T02:28:54.627Z,-0.18
2023-03-12T02:31:25.743Z,-0.12
2023-03-12T02:33:55.983Z,-0.12
2023-03-12T02:36:22.653Z,-0.12
2023-03-12T02:38:51.001Z,-0.12
2023-03-12T02:41:19.969Z,-0.10
2023-03-12T02:43:51.901Z,-0.09
2023-03-12T02:46:18.819Z,-0.02
2023-03-12T02:48:45.305Z,-0.01
2023-03-12T02:51:11.949Z,-0.01
2023-03-12T02:53:38.826Z,0.05
2023-03-12T02:56:06.405Z,0.10
2023-03-12T02:58:33.800Z,0.13
2023-03-12T03:01:01.499Z,0.16
2023-03-12T03:03:27.955Z,0.19
2023-03-12T03:05:54.457Z,0.24
2023-03-12T03:08:20.947Z,0.27
2023-03-12T03:10:50.834Z,0.28
2023-03-12T03:13:17.256Z,0.26
2023-03-12T03:15:43.857Z,0.29
2023-03-12T03:18:10.345Z,0.33
2023-03-12T03:20:36.807Z,0.36
2023-03-12T03:23:03.351Z,0.38
2023-03-12T03:25:29.921Z,0.36
2023-03-12T03:27:56.436Z,0.44
2023-03-12T03:30:22.882Z,0.51
2023-03-12T03:32:51.256Z,0.55
2023-03-12T03:35:18.518Z,0.60
2023-03-12T03:37:45.135Z,0.65
2023-03-12T03:40:12.380Z,0.72
2023-03-12T03:42:39.990Z,0.75
2023-03-12T03:45:08.718Z,0.80
2023-03-12T03:47:36.138Z,0.78
2023-03-12T03:50:04.305Z,0.86
2023-03-12T03:52:31.761Z,0.87
2023-03-12T03:54:59.417Z,0.90
2023-03-12T03:57:27.028Z,0.93
2023-03-12T03:59:53.579Z,0.96
2023-03-12T04:02:20.471Z,0.99
2023-03-12T04:04:49.705Z,1.02
2023-03-12T04:07:16.470Z,1.02
2023-03-12T04:09:43.304Z,1.04
2023-03-12T04:12:10.300Z,1.07
2023-03-12T04:14:40.901Z,1.09
2023-03-12T04:17:08.737Z,1.11
2023-03-12T04:19:35.882Z,1.14
2023-03-12T04:22:04.788Z,1.15
2023-03-12T04:24:31.333Z,1.16
2023-03-12T04:26:58.892Z,1.18
2023-03-12T04:29:25.850Z,1.24
2023-03-12T04:31:52.532Z,1.25
2023-03-12T04:34:18.992Z,1.29
2023-03-12T04:36:48.344Z,1.32
2023-03-12T04:39:20.951Z,1.34
2023-03-12T04:41:49.911Z,1.36
2023-03-12T04:44:16.719Z,1.36
2023-03-12T04:46:44.367Z,1.42
2023-03-12T04:49:14.017Z,1.45
2023-03-12T04:51:42.019Z,1.44
2023-03-12T04:54:08.793Z,1.49
2023-03-12T04:56:36.612Z,1.52
2023-03-12T04:59:03.265Z,1.54
2023-03-12T05:01:32.685Z,1.59
2023-03-12T05:04:02.828Z,1.58
2023-03-12T05:06:30.615Z,1.63
2023-03-12T05:08:57.270Z,1.65
2023-03-12T05:11:23.845Z,1.68
2023-03-12T05:13:50.391Z,1.70
2023-03-12T05:16:17.828Z,1.72
2023-03-12T05:18:45.618Z,1.76
2023-03-12T05:21:15.023Z,1.79
2023-03-12T05:23:43.043Z,1.79
2023-03-12T05:26:18.432Z,1.87
2023-03-12T05:28:44.962Z,1.90
2023-03-12T05:31:12.844Z,1.89
2023-03-12T05:33:40.035Z,1.91
2023-03-12T05:36:08.999Z,1.98
2023-03-12T05:38:35.637Z,1.96
2023-03-12T05:41:02.573Z,1.96
2023-03-12T05:43:32.727Z,1.97
2023-03-12T05:46:01.121Z,1.99
2023-03-12T05:48:28.350Z,2.02
2023-03-12T05:50:56.154Z,2.03
2023-03-12T05:53:23.101Z,2.02
2023-03-12T05:55:50.005Z,1.99
2023-03-12T05:58:16.541Z,2.02
2023-03-12T06:00:44.488Z,2.02
2023-03-12T06:03:13.319Z,2.04
2023-03-12T06:05:41.066Z,2.05
2023-03-12T06:08:07.666Z,2.09
2023-03-12T06:10:34.344Z,2.12
2023-03-12T06:13:00.926Z,2.15
2023-03-12T06:15:27.471Z,2.17
2023-03-12T06:17:53.962Z,2.22
2023-03-12T06:20:20.552Z,2.26
2023-03-12T06:22:47.156Z,2.32
2023-03-12T06:25:14.688Z,2.35
2023-03-12T06:27:41.485Z,2.38
2023-03-12T06:30:09.272Z,2.38
2023-03-12T06:32:35.753Z,2.38
2023-03-12T06:35:04.317Z,2.38
2023-03-12T06:37:30.745Z,2.42
2023-03-12T06:39:57.282Z,2.43
2023-03-12T06:42:23.752Z,2.42
2023-03-12T06:44:50.334Z,2.43
2023-03-12T06:47:17.786Z,2.45
2023-03-12T06:49:44.587Z,2.48
2023-03-12T06:52:11.335Z,2.51
2023-03-12T06:54:38.059Z,2.59
2023-03-12T06:57:04.473Z,2.64
2023-03-12T06:59:30.997Z,2.68
2023-03-12T07:01:57.460Z,2.71
2023-03-12T07:04:23.891Z,2.73
2023-03-12T07:06:51.281Z,2.78
2023-03-12T07:09:18.707Z,2.77
2023-03-12T07:11:45.327Z,2.79
2023-03-12T07:14:12.099Z,2.84
2023-03-12T07:16:38.629Z,2.83
2023-03-12T07:19:05.057Z,2.84
2023-03-12T07:21:31.675Z,2.87
2023-03-12T07:23:58.309Z,2.89
2023-03-12T07:26:24.738Z,2.92
2023-03-12T07:28:51.808Z,2.94
2023-03-12T07:31:18.251Z,2.96
2023-03-12T07:33:44.795Z,2.97
2023-03-12T07:36:11.438Z,2.98
2023-03-12T07:38:37.953Z,3.03
2023-03-12T07:41:04.558Z,3.08
2023-03-12T07:43:31.005Z,3.13
2023-03-12T07:45:58.598Z,3.17
2023-03-12T07:48:25.130Z,3.20
2023-03-12T07:50:52.161Z,3.20
2023-03-12T07:53:19.146Z,3.28
2023-03-12T07:55:46.931Z,3.29
2023-03-12T07:58:15.500Z,3.34
2023-03-12T08:00:42.048Z,3.42
2023-03-12T08:03:08.819Z,3.54
2023-03-12T08:05:35.439Z,3.60
2023-03-12T08:08:01.903Z,3.71
2023-03-12T08:10:28.456Z,3.78
2023-03-12T08:12:54.973Z,3.79
2023-03-12T08:15:21.400Z,3.86
2023-03-12T08:17:48.077Z,3.89
2023-03-12T08:20:14.783Z,3.92
2023-03-12T08:22:41.218Z,3.91
2023-03-12T08:25:08.700Z,3.86
2023-03-12T08:27:35.325Z,3.83
2023-03-12T08:30:01.810Z,3.82
2023-03-12T08:32:28.319Z,3.86
2023-03-12T08:34:54.796Z,3.89
2023-03-12T08:37:21.936Z,3.87
2023-03-12T08:39:48.323Z,3.87
2023-03-12T08:42:14.729Z,3.85
2023-03-12T08:44:41.180Z,3.77
2023-03-12T08:47:07.595Z,3.76
2023-03-12T08:49:34.058Z,3.78
2023-03-12T08:52:00.539Z,3.88
2023-03-12T08:54:26.965Z,4.01
2023-03-12T08:56:53.679Z,4.04
2023-03-12T08:59:22.196Z,4.07
2023-03-12T09:01:49.026Z,4.02
2023-03-12T09:04:16.392Z,3.95
2023-03-12T09:06:43.228Z,3.90
2023-03-12T09:09:09.805Z,3.86
2023-03-12T09:11:39.567Z,3.88
2023-03-12T09:16:52.446Z,4.04
2023-03-12T09:19:19.021Z,4.13
2023-03-12T09:21:45.469Z,4.28
2023-03-12T09:24:12.024Z,4.46
2023-03-12T09:26:38.429Z,4.57
2023-03-12T09:29:04.898Z,4.66
2023-03-12T09:31:31.452Z,4.72
2023-03-12T09:33:57.924Z,4.87
2023-03-12T09:36:24.330Z,4.98
2023-03-12T09:38:50.737Z,5.02
2023-03-12T09:41:23.911Z,5.04
2023-03-12T09:44:02.280Z,5.12
2023-03-12T09:46:40.294Z,5.21
2023-03-12T09:49:16.357Z,5.27
2023-03-12T09:51:47.129Z,5.34
2023-03-12T09:54:24.726Z,5.36
2023-03-12T09:56:54.898Z,5.33
2023-03-12T09:59:22.290Z,5.34
2023-03-12T10:01:58.967Z,5.36
2023-03-12T10:04:59.014Z,5.42
2023-03-12T10:07:34.859Z,5.43
2023-03-12T10:10:32.685Z,5.40
2023-03-12T10:13:47.280Z,5.43
2023-03-12T10:16:28.632Z,5.40
2023-03-12T10:19:07.758Z,5.44
2023-03-12T10:21:44.392Z,5.52
2023-03-12T10:24:25.469Z,5.60
2023-03-12T10:26:56.405Z,5.67
2023-03-12T10:29:27.093Z,5.75
2023-03-12T10:31:53.456Z,5.80
2023-03-12T10:35:14.145Z,5.89
2023-03-12T10:37:49.432Z,5.98
2023-03-12T10:40:19.274Z,6.00
2023-03-12T10:42:46.143Z,6.00
2023-03-12T10:45:28.395Z,6.07
2023-03-12T10:48:24.524Z,6.11
2023-03-12T10:51:12.388Z,6.13
2023-03-12T10:53:47.929Z,6.15
2023-03-12T10:56:20.439Z,6.15
2023-03-12T10:58:53.311Z,6.17
2023-03-12T11:01:25.599Z,6.19
2023-03-12T11:04:07.344Z,6.21
2023-03-12T11:06:33.997Z,6.22
2023-03-12T11:09:16.693Z,6.33
2023-03-12T11:11:47.365Z,6.40
2023-03-12T11:14:20.029Z,6.46
2023-03-12T11:16:46.580Z,6.48
2023-03-12T11:19:25.639Z,6.51
2023-03-12T11:21:57.210Z,6.58
2023-03-12T11:24:23.652Z,6.63
2023-03-12T11:26:59.865Z,6.69
2023-03-12T11:29:33.254Z,6.75
2023-03-12T11:32:05.078Z,6.82
2023-03-12T11:34:37.217Z,6.87
2023-03-12T11:37:12.886Z,6.92
2023-03-12T11:40:09.733Z,7.01
2023-03-12T11:43:10.492Z,7.06
2023-03-12T11:45:42.124Z,7.12
2023-03-12T11:48:15.746Z,7.14
2023-03-12T11:50:45.231Z,7.18
2023-03-12T11:53:30.365Z,7.24
2023-03-12T11:56:02.748Z,7.31
2023-03-12T11:58:49.940Z,7.37
2023-03-12T12:01:24.377Z,7.42
2023-03-12T12:04:20.052Z,7.47
2023-03-12T12:06:55.160Z,7.50
2023-03-12T12:09:32.232Z,7.54
2023-03-12T12:12:22.049Z,7.61
2023-03-12T12:15:06.766Z,7.67
2023-03-12T12:17:59.323Z,7.71
2023-03-12T12:20:40.993Z,7.73
2023-03-12T12:23:16.253Z,7.75
2023-03-12T12:26:13.899Z,7.80
2023-03-12T12:28:54.099Z,7.87
2023-03-12T12:31:40.449Z,7.96
2023-03-12T12:34:38.152Z,8.08
2023-03-12T12:37:31.240Z,8.10
2023-03-12T12:40:20.098Z,8.10
2023-03-12T12:43:00.770Z,8.09
2023-03-12T12:45:30.422Z,8.10
2023-03-12T12:48:07.173Z,8.09
2023-03-12T12:50:38.243Z,8.09
2023-03-12T12:53:21.502Z,8.05
2023-03-12T12:56:01.505Z,8.08
2023-03-12T12:59:03.231Z,8.16
2023-03-12T13:01:32.292Z,8.30
2023-03-12T13:04:24.496Z,8.43
2023-03-12T13:07:20.836Z,8.50
2023-03-12T13:09:52.793Z,8.51
2023-03-12T13:12:35.937Z,8.48
2023-03-12T13:15:28.148Z,8.42
2023-03-12T13:17:54.518Z,8.38
2023-03-12T13:20:24.430Z,8.35
2023-03-12T13:23:24.234Z,8.30
2023-03-12T13:26:18.650Z,8.28
2023-03-12T13:29:02.697Z,8.36
2023-03-12T13:31:37.649Z,8.48
2023-03-12T13:34:19.531Z,8.62
2023-03-12T13:36:50.346Z,8.78
2023-03-12T13:39:16.695Z,9.01
2023-03-12T13:41:49.707Z,9.06
2023-03-12T13:44:39.234Z,9.14
2023-03-12T13:47:11.454Z,9.20
2023-03-12T13:49:44.931Z,9.27
2023-03-12T13:52:20.370Z,9.25
2023-03-12T13:54:57.607Z,9.24
2023-03-12T13:57:39.099Z,9.16
2023-03-12T14:00:15.256Z,9.09
2023-03-12T14:02:49.605Z,9.05
2023-03-12T14:05:18.206Z,9.01
2023-03-12T14:08:11.379Z,9.00
2023-03-12T14:11:05.693Z,8.98
2023-03-12T14:13:58.612Z,8.94
2023-03-12T14:16:39.266Z,8.92
2023-03-12T14:19:06.256Z,8.89
2023-03-12T14:21:39.951Z,8.88
2023-03-12T14:24:07.996Z,8.89
2023-03-12T14:26:36.600Z,8.94
2023-03-12T14:29:25.376Z,8.95
2023-03-12T14:31:56.509Z,8.95
2023-03-12T14:34:27.041Z,8.96
2023-03-12T14:37:16.293Z,9.00
2023-03-12T14:39:59.253Z,8.99
2023-03-12T14:42:32.616Z,9.01
2023-03-12T14:45:05.945Z,9.04
2023-03-12T14:47:47.631Z,9.06
2023-03-12T14:50:18.609Z,9.08
2023-03-12T14:52:45.212Z,9.11
2023-03-12T14:55:18.701Z,9.14
2023-03-12T14:57:45.625Z,9.17
2023-03-12T15:00:27.404Z,9.18
2023-03-12T15:02:58.008Z,9.26
2023-03-12T15:05:25.006Z,9.29
2023-03-12T15:07:57.160Z,9.38
2023-03-12T15:10:27.126Z,9.38
2023-03-12T15:12:56.544Z,9.39
2023-03-12T15:15:44.116Z,9.39
2023-03-12T15:18:18.080Z,9.35
2023-03-12T15:20:46.629Z,9.33
2023-03-12T15:23:15.276Z,9.29
2023-03-12T15:25:42.249Z,9.28
2023-03-12T15:28:11.492Z,9.29
2023-03-12T15:30:39.455Z,9.34
2023-03-12T15:33:14.948Z,9.38
2023-03-12T15:36:02.485Z,9.49
2023-03-12T15:38:32.088Z,9.79
2023-03-12T15:41:06.098Z,9.88
2023-03-12T15:43:33.400Z,9.72
2023-03-12T15:46:03.036Z,9.54
2023-03-12T15:48:40.493Z,9.39
2023-03-12T15:51:16.314Z,9.26
2023-03-12T15:53:42.707Z,9.16
2023-03-12T15:56:09.418Z,9.11
2023-03-12T15:58:38.798Z,9.06
2023-03-12T16:01:12.943Z,9.01
2023-03-12T16:03:40.684Z,8.98
2023-03-12T16:06:16.118Z,8.95
2023-03-12T16:08:52.618Z,8.95
2023-03-12T16:11:25.113Z,8.94
2023-03-12T16:13:58.077Z,8.87
2023-03-12T16:16:24.631Z,8.88
2023-03-12T16:18:51.032Z,8.86
2023-03-12T16:21:17.424Z,8.83
2023-03-12T16:23:43.943Z,8.83
2023-03-12T16:26:13.076Z,8.82
2023-03-12T16:28:39.905Z,8.79
2023-03-12T16:31:14.734Z,8.79
2023-03-12T16:33:43.562Z,8.80
2023-03-12T16:36:15.797Z,8.81
2023-03-12T16:38:43.346Z,8.81
2023-03-12T16:41:13.375Z,8.85
2023-03-12T16:43:41.534Z,8.85
2023-03-12T16:46:09.301Z,8.86
2023-03-12T16:48:36.449Z,8.81
2023-03-12T16:51:03.483Z,8.78
2023-03-12T16:53:30.101Z,8.77
2023-03-12T16:56:01.767Z,8.74
2023-03-12T16:58:29.353Z,8.70
2023-03-12T17:00:56.820Z,8.68
2023-03-12T17:03:33.778Z,8.65
2023-03-12T17:06:01.553Z,8.63
2023-03-12T17:08:27.956Z,8.61
2023-03-12T17:10:56.484Z,8.56
2023-03-12T17:13:28.483Z,8.56
2023-03-12T17:15:56.207Z,8.52
2023-03-12T17:18:22.991Z,8.49
2023-03-12T17:20:51.646Z,8.46
2023-03-12T17:23:18.185Z,8.46
2023-03-12T17:25:45.414Z,8.45
2023-03-12T17:28:13.524Z,8.48
2023-03-12T17:30:39.938Z,8.49
2023-03-12T17:33:10.604Z,8.47
2023-03-12T17:35:37.180Z,8.47
2023-03-12T17:38:04.041Z,8.44
2023-03-12T17:40:30.441Z,8.43
2023-03-12T17:42:56.910Z,8.41
2023-03-12T17:45:23.550Z,8.39
2023-03-12T17:47:50.008Z,8.41
2023-03-12T17:50:17.176Z,8.40
2023-03-12T17:52:43.800Z,8.35
2023-03-12T17:55:11.809Z,8.35
2023-03-12T17:57:38.750Z,8.29
2023-03-12T18:00:14.830Z,8.28
2023-03-12T18:02:41.979Z,8.26
2023-03-12T18:05:10.089Z,8.24
2023-03-12T18:07:36.891Z,8.21
2023-03-12T18:10:05.623Z,8.16
2023-03-12T18:12:32.876Z,8.18
2023-03-12T18:14:59.464Z,8.15
2023-03-12T18:17:25.924Z,8.15
2023-03-12T18:19:52.396Z,8.10
2023-03-12T18:22:19.874Z,8.11
2023-03-12T18:24:46.453Z,8.07
2023-03-12T18:27:12.927Z,8.05
2023-03-12T18:29:41.047Z,8.05
2023-03-12T18:32:08.009Z,8.01
2023-03-12T18:34:34.505Z,8.00
2023-03-12T18:37:00.937Z,7.95
2023-03-12T18:39:27.365Z,7.95
2023-03-12T18:41:56.922Z,7.93
2023-03-12T18:44:24.442Z,7.90
2023-03-12T18:46:51.782Z,7.87
2023-03-12T18:49:18.426Z,7.86
2023-03-12T18:51:45.065Z,7.87
2023-03-12T18:54:12.711Z,7.84
2023-03-12T18:56:40.766Z,7.82
2023-03-12T18:59:09.815Z,7.73
2023-03-12T19:01:36.569Z,7.74
2023-03-12T19:04:03.149Z,7.71
2023-03-12T19:06:35.045Z,7.70
2023-03-12T19:09:09.638Z,7.68
2023-03-12T19:11:36.286Z,7.67
2023-03-12T19:14:03.329Z,7.68
2023-03-12T19:16:30.607Z,7.68
2023-03-12T19:18:57.838Z,7.71
2023-03-12T19:21:24.462Z,7.71
2023-03-12T19:23:52.071Z,7.75
2023-03-12T19:26:18.479Z,7.75
2023-03-12T19:28:44.980Z,7.71
2023-03-12T19:31:14.944Z,7.71
2023-03-12T19:33:42.854Z,7.71
2023-03-12T19:36:09.416Z,7.72
2023-03-12T19:38:36.189Z,7.73
2023-03-12T19:41:02.632Z,7.71
2023-03-12T19:43:29.137Z,7.71
2023-03-12T19:45:55.773Z,7.72
2023-03-12T19:48:22.611Z,7.71
2023-03-12T19:50:49.646Z,7.73
2023-03-12T19:53:17.667Z,7.73
2023-03-12T19:55:46.885Z,7.71
2023-03-12T19:58:13.340Z,7.70
2023-03-12T20:00:41.126Z,7.69
2023-03-12T20:03:08.081Z,7.67
2023-03-12T20:05:34.653Z,7.65
2023-03-12T20:08:01.069Z,7.63
2023-03-12T20:10:29.247Z,7.64
2023-03-12T20:12:55.795Z,7.62
2023-03-12T20:15:22.215Z,7.63
2023-03-12T20:17:48.659Z,7.64
2023-03-12T20:20:16.528Z,7.64
2023-03-12T20:22:43.073Z,7.64
2023-03-12T20:25:10.368Z,7.64
2023-03-12T20:27:38.418Z,7.65
2023-03-12T20:30:05.698Z,7.65
2023-03-12T20:32:32.205Z,7.65
2023-03-12T20:34:58.668Z,7.67
2023-03-12T20:37:25.117Z,7.66
2023-03-12T20:39:51.496Z,7.67
2023-03-12T20:42:17.931Z,7.65
2023-03-12T20:44:44.334Z,7.67
2023-03-12T20:47:10.798Z,7.66
2023-03-12T20:49:37.205Z,7.67
2023-03-12T20:52:03.763Z,7.66
2023-03-12T20:54:30.318Z,7.64
2023-03-12T20:56:56.754Z,7.64
2023-03-12T20:59:23.126Z,7.64
2023-03-12T21:01:49.516Z,7.66
2023-03-12T21:04:15.961Z,7.64
2023-03-12T21:06:42.418Z,7.65
2023-03-12T21:09:08.822Z,7.66
2023-03-12T21:11:35.214Z,7.67
2023-03-12T21:14:01.641Z,7.67
2023-03-12T21:16:28.102Z,7.69
2023-03-12T21:18:56.438Z,7.69
2023-03-12T21:21:23.219Z,7.69
2023-03-12T21:23:49.769Z,7.67
2023-03-12T21:26:18.167Z,7.68
2023-03-12T21:28:45.027Z,7.70
2023-03-12T21:31:14.024Z,7.71
2023-03-12T21:33:40.639Z,7.71
2023-03-12T21:36:09.456Z,7.73
2023-03-12T21:38:37.103Z,7.74
2023-03-12T21:41:08.561Z,7.74
2023-03-12T21:43:35.073Z,7.74
2023-03-12T21:46:10.148Z,7.72
2023-03-12T21:48:37.021Z,7.78
2023-03-12T21:51:08.857Z,7.82
2023-03-12T21:53:36.248Z,7.83
2023-03-12T21:56:04.350Z,7.84
2023-03-12T21:58:31.858Z,7.83
2023-03-12T22:01:07.577Z,7.82
2023-03-12T22:03:34.469Z,7.81
2023-03-12T22:06:01.022Z,7.82
2023-03-12T22:08:27.488Z,7.76
2023-03-12T22:10:53.916Z,7.79
2023-03-12T22:13:20.365Z,7.81
2023-03-12T22:15:52.736Z,7.80
2023-03-12T22:18:19.168Z,7.82
2023-03-12T22:20:53.018Z,7.83
2023-03-12T22:23:20.234Z,7.81
2023-03-12T22:25:46.699Z,7.82
2023-03-12T22:28:13.997Z,7.81
2023-03-12T22:30:40.402Z,7.80
2023-03-12T22:33:06.981Z,7.81
2023-03-12T22:35:33.405Z,7.82
2023-03-12T22:37:59.788Z,7.83
2023-03-12T22:40:26.607Z,7.84
2023-03-12T22:42:53.924Z,7.86
2023-03-12T22:45:20.312Z,7.83
2023-03-12T22:47:46.730Z,7.83
2023-03-12T22:50:13.305Z,7.84
2023-03-12T22:52:40.029Z,7.83
2023-03-12T22:55:06.858Z,7.82
2023-03-12T22:57:34.704Z,7.84
2023-03-12T23:00:01.135Z,7.83
2023-03-12T23:02:27.636Z,7.85
2023-03-12T23:04:54.090Z,7.82
2023-03-12T23:07:20.658Z,7.79
2023-03-12T23:09:47.536Z,7.77
2023-03-12T23:12:13.930Z,7.74
2023-03-12T23:14:40.357Z,7.73
2023-03-12T23:17:06.754Z,7.70
2023-03-12T23:19:33.577Z,7.69
2023-03-12T23:22:00.002Z,7.65
2023-03-12T23:24:26.390Z,7.69
2023-03-12T23:26:54.781Z,7.70
2023-03-12T23:29:21.201Z,7.69
2023-03-12T23:31:47.626Z,7.69
2023-03-12T23:34:14.055Z,7.69
2023-03-12T23:36:40.707Z,7.67
2023-03-12T23:39:07.104Z,7.67
2023-03-12T23:41:33.757Z,7.66
2023-03-12T23:44:00.289Z,7.64
2023-03-12T23:46:27.417Z,7.63
2023-03-12T23:48:54.164Z,7.63
2023-03-12T23:51:32.571Z,7.63
2023-03-12T23:54:01.822Z,7.58
2023-03-12T23:56:33.674Z,7.57
2023-03-12T23:59:00.142Z,7.51
